Latest Weather Observations for Munglinup West

IDW60801

Issued at 12:03 pm WST Thursday 15 November 2018 (issued every 10 minutes, with the page automatically refreshed every 10 minutes)

About weather observations | Map of weather stations | Latest weather observations for WA | Other Formats
Station Details ID: 012044 Name: MUNGLINUP WEST Lat: -33.55 Lon: 120.70 Height: 220.0 m
Data from the previous 72 hours. | See also: Recent months at Munglinup West
Date/Time
WST
Temp
°C
App
Temp
°C
Dew
Point
°C
Rel
Hum
%
Delta-T
°C
Wind Press
QNH
hPa
Press
MSL
hPa
Rain since
9am
mm
Dir  Spd
km/h
Gust
km/h
Spd
kts
Gust
kts
15/12:00pm 32.5 28.6 8.7 23 13.4 NW 19 33 10 18 1016.1 1015.5 0.0
15/11:30am 33.5 29.8 9.5 23 13.8 NW 19 30 10 16 1016.6 1016.0 0.0
15/11:00am 33.4 29.9 10.1 24 13.5 NW 19 33 10 18 1017.2 1016.6 0.0
15/10:30am 32.2 28.0 9.7 25 12.9 NNW 22 33 12 18 1017.5 1016.9 0.0
15/10:00am 31.1 27.5 10.4 28 11.9 NNW 20 33 11 18 1017.9 1017.3 0.0
15/09:30am 29.4 25.7 11.5 33 10.4 N 22 33 12 18 1018.0 1017.4 0.0
15/09:00am 27.7 23.4 12.1 38 9.1 N 26 39 14 21 1018.1 1017.5 0.0
15/08:30am 26.2 22.0 12.3 42 8.1 N 26 41 14 22 1018.3 1017.7 0.0
15/08:00am 24.3 20.1 12.3 47 6.9 N 26 39 14 21 1018.4 1017.8 0.0
15/07:30am 22.0 17.9 12.8 56 5.3 N 26 33 14 18 1018.5 1017.9 0.0
15/07:00am 19.4 15.6 12.4 64 3.9 NNE 24 35 13 19 1018.5 1017.9 0.0
15/06:30am 16.3 12.3 11.9 75 2.4 NE 24 33 13 18 1018.5 1017.9 0.0
15/06:00am 14.8 11.0 11.2 79 1.9 NE 22 33 12 18 1018.5 1017.9 0.0
15/05:30am 13.5 9.7 11.0 85 1.3 NE 22 32 12 17 1018.4 1017.8 0.0
15/05:00am 13.2 9.8 11.1 87 1.1 NE 20 28 11 15 1018.4 1017.8 0.0
15/04:30am 12.5 9.0 10.9 90 0.8 NE 20 26 11 14 1018.2 1017.6 0.0
15/04:00am 12.4 8.9 11.0 91 0.7 NE 20 26 11 14 1018.1 1017.5 0.0
15/03:30am 12.1 8.6 10.8 92 0.7 NE 20 26 11 14 1018.2 1017.6 0.0
15/03:00am 12.1 8.6 10.8 92 0.7 ENE 20 28 11 15 1018.2 1017.6 0.0
15/02:30am 11.8 8.5 10.9 94 0.5 ENE 19 24 10 13 1018.2 1017.6 0.0
15/02:00am 11.4 9.6 10.8 96 0.3 ENE 11 15 6 8 1018.6 1018.0 0.0
15/01:30am 11.6 9.4 10.8 95 0.4 E 13 19 7 10 1018.7 1018.1 0.0
15/01:00am 11.4 9.6 10.9 97 0.3 E 11 19 6 10 1019.0 1018.5 0.0
15/12:30am 11.5 9.7 10.9 96 0.3 E 11 15 6 8 1019.4 1018.9 0.0
15/12:00am 11.6 10.2 10.8 95 0.4 E 9 15 5 8 1019.8 1019.2 0.0
 
Date/Time
WST
Temp
°C
App
Temp
°C
Dew
Point
°C
Rel
Hum
%
Delta-T
°C
Wind Press
QNH
hPa
Press
MSL
hPa
Rain since
9am
mm
Dir  Spd
km/h
Gust
km/h
Spd
kts
Gust
kts
14/11:30pm 12.0 10.2 10.9 93 0.6 E 11 17 6 9 1020.1 1019.5 0.0
14/11:00pm 12.2 10.0 10.9 92 0.7 ESE 13 17 7 9 1020.4 1019.8 0.0
14/10:30pm 12.4 10.3 11.0 91 0.7 ESE 13 19 7 10 1020.7 1020.1 0.0
14/10:00pm 12.7 9.8 10.9 89 0.9 ESE 17 24 9 13 1020.8 1020.2 0.0
14/09:30pm 12.9 9.9 10.8 87 1.1 ESE 17 24 9 13 1021.1 1020.5 0.0
14/09:00pm 13.1 9.8 10.8 86 1.2 ESE 19 24 10 13 1021.3 1020.7 0.0
14/08:30pm 13.4 10.1 10.8 84 1.4 ESE 19 28 10 15 1021.0 1020.4 0.0
14/08:00pm 13.6 10.0 10.6 82 1.6 ESE 20 30 11 16 1020.8 1020.2 0.0
14/07:30pm 13.8 9.8 10.4 80 1.8 ESE 22 33 12 18 1020.7 1020.1 0.0
14/07:00pm 14.2 10.6 10.0 76 2.2 SE 19 33 10 18 1021.1 1020.5 0.0
14/06:30pm 15.1 10.1 9.7 70 2.8 ESE 26 39 14 21 1020.9 1020.3 0.0
14/06:00pm 16.3 11.3 9.7 65 3.5 SE 26 35 14 19 1020.5 1019.9 0.0
14/05:30pm 17.5 11.8 9.9 61 4.1 SE 30 39 16 21 1020.3 1019.7 0.0
14/05:00pm 18.6 13.4 10.2 58 4.5 ESE 28 39 15 21 1020.2 1019.6 0.0
14/04:30pm 19.1 13.6 10.4 57 4.7 SE 30 39 16 21 1020.1 1019.5 0.0
14/04:00pm 20.1 14.7 10.8 55 5.1 SE 30 43 16 23 1020.0 1019.4 0.0
14/03:30pm 21.0 15.7 11.1 53 5.5 SE 30 39 16 21 1020.2 1019.6 0.0
14/03:00pm 22.3 17.8 11.4 50 6.1 SE 26 39 14 21 1020.2 1019.6 0.0
14/02:30pm 23.1 18.6 11.5 48 6.6 SE 26 39 14 21 1020.1 1019.5 0.0
14/02:24pm 23.1 18.3 11.5 48 6.6 SE 28 50 15 27 1020.1 1019.5 0.0
14/02:00pm 23.8 19.7 11.5 46 7.0 SE 24 37 13 20 1020.2 1019.6 0.0
14/01:30pm 22.8 19.2 11.8 50 6.3 SE 22 35 12 19 1020.5 1019.9 0.0
14/01:00pm 24.4 22.3 11.0 43 7.5 SE 13 20 7 11 1020.7 1020.1 0.0
14/12:30pm 23.6 22.3 11.3 46 7.0 NE 9 17 5 9 1020.9 1020.3 0.0
14/12:00pm 22.0 20.2 10.8 49 6.2 NNE 11 22 6 12 1021.3 1020.7 0.0
14/11:30am 22.2 20.4 10.7 48 6.4 NNE 11 22 6 12 1021.5 1020.9 0.0
14/11:00am 20.3 19.2 10.7 54 5.3 ESE 7 15 4 8 1021.9 1021.3 0.0
14/10:30am 20.2 18.4 10.9 55 5.1 ENE 11 20 6 11 1022.1 1021.5 0.0
14/10:00am 19.4 18.2 10.4 56 4.9 ENE 7 17 4 9 1022.4 1021.8 0.0
14/09:30am 18.4 16.8 10.3 59 4.4 ESE 9 20 5 11 1022.5 1021.9 0.0
14/09:00am 17.8 16.3 10.4 62 4.0 ESE 9 17 5 9 1022.6 1022.0 0.0
14/08:30am 16.7 14.7 10.3 66 3.4 E 11 17 6 9 1022.8 1022.3 0.0
14/08:00am 16.3 14.2 9.7 65 3.5 ESE 11 20 6 11 1022.9 1022.4 0.0
14/07:30am 15.6 13.5 9.9 69 3.0 E 11 19 6 10 1022.8 1022.3 0.0
14/07:00am 14.9 13.2 9.9 72 2.6 E 9 13 5 7 1022.7 1022.1 0.0
14/06:30am 14.6 12.6 10.0 74 2.4 ESE 11 15 6 8 1022.6 1022.0 0.0
14/06:00am 14.1 12.4 9.7 75 2.3 E 9 15 5 8 1022.4 1021.8 0.0
14/05:30am 13.8 12.6 9.6 76 2.2 SE 6 9 3 5 1022.1 1021.5 0.0
14/05:00am 13.5 12.2 9.9 79 1.9 SE 7 9 4 5 1021.8 1021.2 0.0
14/04:30am 13.5 12.2 9.9 79 1.9 ESE 7 11 4 6 1021.5 1020.9 0.0
14/04:00am 13.5 11.9 10.1 80 1.8 SE 9 13 5 7 1021.1 1020.5 0.0
14/03:30am 13.6 12.4 9.6 77 2.1 SSE 6 6 3 3 1021.3 1020.7 0.0
14/03:00am 13.6 11.9 9.8 78 2.0 SE 9 13 5 7 1021.1 1020.5 0.0
14/02:30am 13.7 12.0 9.9 78 2.0 S 9 15 5 8 1020.9 1020.3 0.0
14/02:00am 13.8 12.7 10.6 81 1.7 SSE 7 11 4 6 1020.8 1020.2 0.0
14/01:30am 13.8 12.6 10.4 80 1.8 S 7 13 4 7 1020.7 1020.1 0.0
14/01:00am 13.8 11.9 10.4 80 1.8 SSW 11 17 6 9 1020.6 1020.0 0.0
14/12:30am 13.8 12.3 10.4 80 1.8 S 9 13 5 7 1020.7 1020.1 0.0
14/12:00am 13.9 12.4 10.7 81 1.7 S 9 17 5 9 1020.7 1020.1 0.0
 
Date/Time
WST
Temp
°C
App
Temp
°C
Dew
Point
°C
Rel
Hum
%
Delta-T
°C
Wind Press
QNH
hPa
Press
MSL
hPa
Rain since
9am
mm
Dir  Spd
km/h
Gust
km/h
Spd
kts
Gust
kts
13/11:30pm 14.0 12.6 10.8 81 1.7 S 9 13 5 7 1021.0 1020.4 0.0
13/11:00pm 14.0 12.3 11.3 84 1.4 S 11 17 6 9 1021.0 1020.4 0.0
13/10:30pm 14.2 12.2 11.4 83 1.5 S 13 17 7 9 1021.0 1020.4 0.0
13/10:00pm 14.2 12.6 11.4 83 1.5 SSE 11 19 6 10 1021.1 1020.5 0.0
13/09:30pm 14.3 12.3 11.6 84 1.5 S 13 19 7 10 1021.2 1020.6 0.0
13/09:00pm 14.3 12.6 12.3 88 1.1 S 13 19 7 10 1021.0 1020.4 0.0
13/08:30pm 14.5 13.1 12.2 86 1.3 SSE 11 17 6 9 1020.8 1020.2 0.0
13/08:00pm 14.6 12.7 11.9 84 1.5 SSE 13 22 7 12 1020.4 1019.8 0.0
13/07:30pm 14.8 12.4 12.5 86 1.3 SSE 17 20 9 11 1020.0 1019.4 0.0
13/07:00pm 15.0 12.9 12.5 85 1.4 SSE 15 22 8 12 1019.5 1019.0 0.0
13/06:30pm 15.3 12.8 12.4 83 1.6 S 17 24 9 13 1019.0 1018.5 0.0
13/06:00pm 16.1 13.7 12.7 80 1.9 SSE 17 26 9 14 1018.6 1018.0 0.0
13/05:30pm 16.8 14.4 12.7 77 2.3 SSE 17 26 9 14 1018.3 1017.7 0.0
13/05:00pm 17.1 14.4 12.8 76 2.4 SSE 19 30 10 16 1018.3 1017.7 0.0
13/04:30pm 17.7 14.5 13.0 74 2.7 S 22 32 12 17 1018.0 1017.4 0.0
13/04:00pm 20.1 16.6 13.3 65 3.9 S 24 35 13 19 1017.5 1016.9 0.0
13/03:30pm 20.9 17.3 13.1 61 4.5 S 24 32 13 17 1017.3 1016.7 0.0
13/03:00pm 21.7 18.9 13.3 59 4.9 S 20 30 11 16 1017.1 1016.5 0.0
13/02:30pm 21.9 19.0 13.0 57 5.1 S 20 30 11 16 1017.2 1016.6 0.0
13/02:00pm 22.8 19.7 13.3 55 5.5 S 22 32 12 17 1017.2 1016.6 0.0
13/01:30pm 22.7 19.4 12.9 54 5.7 S 22 39 12 21 1017.3 1016.7 0.0
13/01:00pm 23.5 21.0 12.2 49 6.5 SSE 17 26 9 14 1017.2 1016.6 0.0
13/12:30pm 24.1 22.0 11.1 44 7.3 SW 13 26 7 14 1017.5 1016.9 0.0
13/12:00pm 23.7 22.4 11.4 46 7.0 SW 9 17 5 9 1017.6 1017.0 0.0
13/11:30am 22.1 20.5 10.3 47 6.5 WSW 9 17 5 9 1018.0 1017.4 0.0
13/11:00am 22.3 20.7 11.4 50 6.1 SW 11 19 6 10 1018.4 1017.8 0.0
13/10:30am 21.6 20.0 11.6 53 5.6 SW 11 20 6 11 1018.5 1017.9 0.0
13/10:00am 20.3 18.2 11.2 56 5.0 SSW 13 26 7 14 1018.7 1018.1 0.0
13/09:30am 19.6 17.8 12.1 62 4.2 WSW 13 22 7 12 1018.7 1018.1 0.0
13/09:00am 18.1 15.5 11.9 67 3.4 WSW 17 28 9 15 1018.8 1018.3 0.8
13/08:30am 18.1 16.7 12.3 69 3.2 SW 11 19 6 10 1018.9 1018.4 0.8
13/08:00am 16.8 14.9 13.1 79 2.1 SW 15 22 8 12 1018.9 1018.4 0.8
13/07:30am 15.4 15.1 15.4 100 0.0 W 11 17 6 9 1018.8 1018.3 0.8
13/07:00am 14.7 - - - - W 13 19 7 10 1018.7 1018.1 0.8
13/06:30am 14.5 - - - - W 11 15 6 8 1018.4 1017.8 0.8
13/06:00am 14.0 - - - - WSW 9 13 5 7 1018.3 1017.7 0.8
13/05:30am 13.8 - - - - WSW 9 15 5 8 1017.9 1017.3 0.8
13/05:00am 13.7 - - - - SW 9 15 5 8 1017.7 1017.1 0.8
13/04:30am 13.6 - - - - SSW 11 15 6 8 1017.5 1016.9 0.8
13/04:00am 13.8 - - - - SSW 15 22 8 12 1017.2 1016.6 0.6
13/03:30am 14.0 - - - - WSW 13 17 7 9 1017.0 1016.4 0.2
13/03:00am 14.0 - - - - W 9 13 5 7 1016.9 1016.3 0.2
13/02:30am 14.0 - - - - W 4 6 2 3 1016.8 1016.2 0.2
13/02:00am 14.0 - - - - W 7 9 4 5 1016.7 1016.1 0.2
13/01:30am 13.9 - - - - W 4 6 2 3 1016.7 1016.1 0.2
13/01:00am 13.9 - - - - WSW 7 9 4 5 1016.8 1016.2 0.2
13/12:30am 14.2 14.4 14.2 100 0.0 SW 6 7 3 4 1016.8 1016.2 0.2
13/12:00am 14.6 14.4 13.5 93 0.6 SSW 7 9 4 5 1016.8 1016.2 0.2
 
Date/Time
WST
Temp
°C
App
Temp
°C
Dew
Point
°C
Rel
Hum
%
Delta-T
°C
Wind Press
QNH
hPa
Press
MSL
hPa
Rain since
9am
mm
Dir  Spd
km/h
Gust
km/h
Spd
kts
Gust
kts
12/11:30pm 14.5 15.4 13.0 91 0.8 CALM 0 0 0 0 1016.8 1016.2 0.2
12/11:00pm 14.3 15.1 12.7 90 0.9 CALM 0 0 0 0 1016.8 1016.2 0.2
12/10:30pm 14.2 14.5 12.2 88 1.1 SSW 2 6 1 3 1016.9 1016.3 0.2
12/10:00pm 13.8 13.3 12.0 89 1.0 SSW 6 15 3 8 1017.1 1016.5 0.2
12/09:30pm 12.7 12.2 12.1 96 0.3 S 6 11 3 6 1017.3 1016.7 0.2
12/09:00pm 11.6 11.4 10.3 92 0.7 E 2 2 1 1 1017.1 1016.5 0.2
12/08:30pm 11.7 11.0 9.9 89 0.9 N 4 4 2 2 1017.0 1016.4 0.2
12/08:00pm 12.9 12.3 10.3 84 1.4 SE 4 6 2 3 1016.6 1016.0 0.2
12/07:30pm 13.8 12.8 10.4 80 1.8 ESE 6 7 3 4 1016.1 1015.5 0.2
12/07:00pm 14.1 11.7 10.1 77 2.1 SE 13 15 7 8 1015.6 1015.0 0.2
12/06:30pm 15.7 13.7 10.2 70 2.9 SE 11 15 6 8 1015.5 1014.9 0.2
12/06:00pm 17.1 14.1 10.5 65 3.6 S 17 24 9 13 1015.5 1014.9 0.2
12/05:30pm 18.4 15.4 10.5 60 4.3 S 17 24 9 13 1015.2 1014.6 0.2
12/05:00pm 19.5 16.5 10.8 57 4.8 S 17 26 9 14 1014.7 1014.1 0.2
12/04:30pm 20.2 17.4 11.4 57 4.9 S 17 24 9 13 1014.4 1013.8 0.2
12/04:00pm 21.4 18.6 11.4 53 5.6 S 17 24 9 13 1014.1 1013.5 0.2
12/03:30pm 21.4 18.0 11.1 52 5.7 S 20 32 11 17 1013.8 1013.2 0.2
12/03:00pm 22.2 18.8 9.0 43 7.1 SSW 17 30 9 16 1013.5 1012.9 0.2
12/02:30pm 21.6 18.7 9.5 46 6.6 SW 15 24 8 13 1013.6 1013.0 0.2
12/02:00pm 21.9 19.3 9.4 45 6.8 W 13 20 7 11 1014.0 1013.4 0.2
12/01:30pm 21.1 18.7 10.0 49 6.1 WSW 13 26 7 14 1014.1 1013.5 0.0
12/01:00pm 19.9 17.4 9.8 52 5.5 SW 13 24 7 13 1014.6 1014.0 0.0
12/12:30pm 18.8 15.3 10.1 57 4.7 SSW 19 28 10 15 1014.8 1014.2 0.0

Other Formats:

Comma delimited format used in spreadsheet applications
http://www.bom.gov.au/fwo/IDW60801/IDW60801.95644.axf

JavaScript Object Notation format (JSON) in row-major order
http://www.bom.gov.au/fwo/IDW60801/IDW60801.95644.json